Tiempo atmosférico en la estación meteorológica de Salas, Asturias (240 m.)



Fecha
DESCASC
Temp. máxima en grados centígrados (hora)
DESCASC
Temp. mínima en grados centígrados (hora)
DESCASC
Temp. media en grados centígrados
DESCASC
Racha de viento máxima en m/sg (hora)
DESCASC
Velocidad máxima media en intervalos de 10 minutos(hora)
DESCASC
Precipitaciones diarias en mm
DESCASC
Precipitaciones de 00:00 a 06:00 en mm
DESCASC
Precipitaciones de 06:00 a 12:00 en mm
DESCASC
Precipitaciones de 12:00 a 18:00 en mm
DESCASC
Precipitaciones de 18:00 a 24:00 en mm
DESCASC

Gráficas

Temp. máximas Temp. mínimas Temp. medias Precipitaciones Rachas de viento máximas Velocidades máximas media en intervalos de 10 minutos

Datos horarios

Fecha y hora oficial Temperatura (ºC) Velocidad del viento (km/h) Dirección del viento Racha (km/h) Dirección de racha Precipitación (mm) Presión (hPa) Tendencia (hPa) Humedad (%)
2021-01-17 23:00:00 9 5 Oeste 8 Oeste 0 -- -- 95
2021-01-17 22:00:00 9.3 4 Norte 7 Norte 0 -- -- 92
2021-01-17 21:00:00 9.6 0 Calma 8 Sur 0 -- -- 95
2021-01-17 20:00:00 10.4 3 Oeste 9 Oeste 0 -- -- 91
2021-01-17 19:00:00 10 5 Norte 11 Oeste 0 -- -- 92
2021-01-17 18:00:00 10.7 0 Calma 11 Sur 0 -- -- 90
2021-01-17 17:00:00 11.1 7 Sur 19 Sudoeste 0 -- -- 82
2021-01-17 16:00:00 11.6 10 Sudoeste 15 Sudoeste 0 -- -- 76
2021-01-17 15:00:00 11.3 5 Sudoeste 11 Sudoeste 0 -- -- 74
2021-01-17 14:00:00 10.5 3 Oeste 8 Nordeste 0 -- -- 74
2021-01-17 13:00:00 8.9 3 Oeste 7 Sudoeste 0 -- -- 76
2021-01-17 12:00:00 7.2 3 Oeste 8 Sudoeste 0 -- -- 78
2021-01-17 11:00:00 5.5 4 Nordeste 10 Sudoeste 0 -- -- 84
2021-01-17 10:00:00 3.8 4 Oeste 8 Oeste 0 -- -- 85
2021-01-17 09:00:00 2.4 4 Oeste 7 Oeste 0 -- -- 88
2021-01-17 08:00:00 2 0 Calma 5 Oeste 0 -- -- 85
2021-01-17 07:00:00 2.1 0 Calma 4 Este 0 -- -- 85
2021-01-17 06:00:00 2.6 0 Calma 4 Oeste 0 -- -- 79
2021-01-17 05:00:00 2.4 0 Calma 5 Nordeste 0 -- -- 81
2021-01-17 04:00:00 2.8 2 Nordeste 3 Nordeste 0 -- -- 78
2021-01-17 03:00:00 3.1 0 Calma 5 Nordeste 0 -- -- 76
2021-01-17 02:00:00 3.5 0 Calma 6 Oeste 0 -- -- 73
2021-01-17 01:00:00 3.1 0 Calma 4 Nordeste 0 -- -- 79
2021-01-17 00:00:00 3.8 2 Oeste 5 Oeste 0 -- -- 78
2021-01-16 23:00:00 4.1 0 Calma 6 Este 0 -- -- 82
2021-01-16 22:00:00 4.7 3 Oeste 8 Sudoeste 0 -- -- 80
2021-01-16 21:00:00 5 0 Calma 4 Sudoeste 0 -- -- 85
2021-01-16 20:00:00 6.1 2 Oeste 5 Norte 0 -- -- 81
2021-01-16 19:00:00 7.4 0 Calma 4 Este 0 -- -- 77
2021-01-16 18:00:00 9.6 0 Calma 3 Nordeste 0 -- -- 66
2021-01-16 17:00:00 14.2 2 Sudeste 6 Sudoeste 0 -- -- 55
2021-01-16 16:00:00 14.5 5 Sur 8 Sur 0 -- -- 48
2021-01-16 15:00:00 13.6 4 Sur 6 Sur 0 -- -- 52
2021-01-16 14:00:00 11.8 2 Sur 8 Sur 0 -- -- 52
2021-01-16 13:00:00 9.2 3 Sur 6 Sudoeste 0 -- -- 65
2021-01-16 12:00:00 6.9 3 Sur 7 Sudoeste 0 -- -- 71
2021-01-16 11:00:00 4 3 Sudoeste 9 Sudoeste 0 -- -- 78
2021-01-16 10:00:00 1.3 3 Oeste 6 Oeste 0 -- -- 91
2021-01-16 09:00:00 0.3 2 Norte 6 Noroeste 0 -- -- 90
2021-01-16 08:00:00 0.7 4 Oeste 8 Oeste 0 -- -- 91
2021-01-16 07:00:00 0.8 3 Noroeste 11 Oeste 0 -- -- 93
2021-01-16 06:00:00 0.9 3 Oeste 6 Sudoeste 0 -- -- 95
2021-01-16 05:00:00 1 0 Calma 7 Oeste 0 -- -- 96
2021-01-16 04:00:00 1.1 2 Oeste 7 Noroeste 0 -- -- 97
2021-01-16 03:00:00 1.9 5 Oeste 8 Oeste 0 -- -- 96
2021-01-16 02:00:00 2.3 4 Oeste 8 Oeste 0 -- -- 95
2021-01-16 01:00:00 2.6 0 Calma 6 Oeste 0 -- -- 97
2021-01-16 00:00:00 3 3 Oeste 6 Sudoeste 0 -- -- 97
2021-01-15 23:00:00 3.8 4 Sudoeste 7 Oeste 0 -- -- 96
2021-01-15 22:00:00 4.5 4 Sudoeste 7 Sudoeste 0 -- -- 96
2021-01-15 21:00:00 4.8 0 Calma 4 Sudoeste 0 -- -- 97
2021-01-15 20:00:00 5.3 2 Este 4 Sudoeste 0 -- -- 95
2021-01-15 19:00:00 6.8 0 Calma 8 Norte 0 -- -- 91
2021-01-15 18:00:00 8.4 3 Norte 7 Norte 0 -- -- 83
2021-01-15 17:00:00 11.8 3 Sudoeste 8 Este 0 -- -- 67
2021-01-15 16:00:00 12.1 5 Norte 14 Nordeste 0 -- -- 67
2021-01-15 15:00:00 11.6 6 Sur 9 Sur 0 -- -- 71
2021-01-15 14:00:00 10.2 5 Sur 15 Sur 0 -- -- 75
2021-01-15 13:00:00 9.4 9 Sur 14 Sudoeste 0 -- -- 80
2021-01-15 12:00:00 8.3 7 Sur 10 Sudoeste 0 -- -- 84
2021-01-15 11:00:00 6.1 6 Sudoeste 11 Sudoeste 0 -- -- 94
2021-01-15 10:00:00 3.7 4 Oeste 9 Oeste 0 -- -- 100
2021-01-15 09:00:00 2.8 0 Calma 5 Oeste 0 -- -- 100
2021-01-15 08:00:00 2.9 2 Oeste 6 Sudoeste 0 -- -- 100
2021-01-15 07:00:00 3 2 Noroeste 5 Oeste 0 -- -- 100
2021-01-15 06:00:00 3.5 2 Oeste 5 Oeste 0 -- -- 99
2021-01-15 05:00:00 4.1 3 Oeste 6 Oeste 0 -- -- 99
2021-01-15 04:00:00 4.7 4 Oeste 8 Oeste 0 -- -- 100
2021-01-15 03:00:00 5 2 Oeste 8 Nordeste 0 -- -- 99
2021-01-15 02:00:00 5.6 3 Oeste 6 Sudoeste 0 -- -- 100
2021-01-15 01:00:00 5.3 3 Oeste 7 Oeste 0 -- -- 100
2021-01-15 00:00:00 5.8 3 Oeste 7 Sur 0 -- -- 99
2021-01-14 23:00:00 6.8 5 Oeste 8 Oeste 0 -- -- 98
2021-01-14 22:00:00 6.9 3 Oeste 8 Oeste 0 -- -- 98
2021-01-14 21:00:00 6.9 0 Calma 4 Sudoeste 0 -- -- 98
2021-01-14 20:00:00 7.1 3 Sudoeste 9 Sudoeste 0.2 -- -- 98
2021-01-14 19:00:00 7.3 5 Sudoeste 9 Sudoeste 0 -- -- 98
2021-01-14 18:00:00 7.8 5 Sudoeste 10 Sudoeste 0.2 -- -- 94
2021-01-14 17:00:00 8.9 5 Sudoeste 12 Sur 0 -- -- 85
2021-01-14 16:00:00 8.8 7 Sudoeste 13 Sudoeste 0 -- -- 83
2021-01-14 15:00:00 7.8 6 Sudoeste 12 Sudoeste 0 -- -- 77
2021-01-14 14:00:00 7 8 Sur 12 Sur 0 -- -- 75
2021-01-14 13:00:00 5.6 4 Sudoeste 9 Sudoeste 0 -- -- 75
2021-01-14 12:00:00 4.5 3 Sudoeste 9 Sudoeste 0 -- -- 80
2021-01-14 11:00:00 3.2 6 Sudoeste 14 Oeste 0 -- -- 86
2021-01-14 10:00:00 1.6 8 Oeste 12 Oeste 0 -- -- 89
2021-01-14 09:00:00 0.7 5 Sudoeste 12 Sur 0 -- -- 91
2021-01-14 08:00:00 0.2 6 Oeste 13 Oeste 0 -- -- 91
2021-01-14 07:00:00 0.4 0 Calma 6 Oeste 0 -- -- 93
2021-01-14 06:00:00 0.5 0 Calma 6 Oeste 0 -- -- 94
2021-01-14 05:00:00 0.4 4 Oeste 6 Sudoeste 0 -- -- 96
2021-01-14 04:00:00 0.2 2 Sudoeste 6 Oeste 0 -- -- 97
2021-01-14 03:00:00 0.6 3 Oeste 6 Oeste 0 -- -- 97
2021-01-14 02:00:00 0.9 3 Oeste 6 Sudoeste 0 -- -- 96
2021-01-14 01:00:00 1.2 0 Calma 7 Oeste 0 -- -- 95
2021-01-14 00:00:00 1.6 0 Calma 6 Oeste 0 -- -- 95
2021-01-13 23:00:00 2.2 3 Oeste 8 Oeste 0 -- -- 96
2021-01-13 22:00:00 2.6 4 Oeste 8 Sudoeste 0 -- -- 96
2021-01-13 21:00:00 3.1 2 Nordeste 5 Oeste 0 -- -- 94
2021-01-13 20:00:00 3.7 0 Calma 4 Nordeste 0 -- -- 92
2021-01-13 19:00:00 5.4 0 Calma 8 Norte 0 -- -- 86
2021-01-13 18:00:00 7.4 5 Norte 9 Norte 0 -- -- 80
2021-01-13 17:00:00 11.6 2 Sur 8 Sur 0 -- -- 65
2021-01-13 16:00:00 11.4 5 Sur 10 Sudeste 0 -- -- 64
2021-01-13 15:00:00 11.2 6 Sur 10 Sur 0 -- -- 66
2021-01-13 14:00:00 10.2 3 Sudeste 7 Sur 0 -- -- 68
2021-01-13 13:00:00 7.9 4 Sur 6 Sur 0 -- -- 72
2021-01-13 12:00:00 5.3 4 Sudoeste 8 Sudoeste 0 -- -- 79
2021-01-13 11:00:00 3.1 4 Sudoeste 12 Sur 0 -- -- 81
2021-01-13 10:00:00 0.9 3 Sudoeste 7 Oeste 0 -- -- 91
2021-01-13 09:00:00 0 4 Oeste 9 Oeste 0 -- -- 94
2021-01-13 08:00:00 0.1 4 Oeste 8 Sudoeste 0 -- -- 93
2021-01-13 07:00:00 0.7 4 Oeste 8 Sudoeste 0 -- -- 93
2021-01-13 06:00:00 0.7 4 Oeste 7 Sudoeste 0 -- -- 93
2021-01-13 05:00:00 0.4 3 Oeste 8 Sur 0 -- -- 94
2021-01-13 04:00:00 0.2 2 Oeste 8 Oeste 0 -- -- 94
2021-01-13 03:00:00 0.5 0 Calma 6 Noroeste 0 -- -- 93
2021-01-13 02:00:00 0.9 2 Sudoeste 5 Oeste 0 -- -- 92
2021-01-13 01:00:00 1.3 3 Oeste 8 Oeste 0 -- -- 92
2021-01-13 00:00:00 1.6 3 Oeste 7 Oeste 0 -- -- 92
2021-01-12 23:00:00 2.2 5 Oeste 8 Sudoeste 0 -- -- 93
2021-01-12 22:00:00 2.4 4 Oeste 7 Sudoeste 0 -- -- 93
2021-01-12 21:00:00 2.7 0 Calma 8 Oeste 0 -- -- 95
2021-01-12 20:00:00 3.2 2 Nordeste 4 Oeste 0 -- -- 92
2021-01-12 19:00:00 4.2 0 Calma 8 Nordeste 0 -- -- 88
2021-01-12 18:00:00 6.5 6 Norte 12 Nordeste 0 -- -- 80
2021-01-12 17:00:00 9.9 4 Norte 9 Sudeste 0 -- -- 68
2021-01-12 16:00:00 10.8 5 Sur 9 Sur 0 -- -- 61
2021-01-12 15:00:00 10.3 5 Sur 8 Sudeste 0 -- -- 58
2021-01-12 14:00:00 9.4 4 Sudeste 7 Sur 0 -- -- 59
2021-01-12 13:00:00 7.1 3 Sur 10 Oeste 0 -- -- 69
2021-01-12 12:00:00 4.3 5 Sudoeste 8 Oeste 0 -- -- 74
2021-01-12 11:00:00 2.2 4 Sudoeste 9 Sudoeste 0 -- -- 81
2021-01-12 10:00:00 0.1 4 Oeste 9 Sudoeste 0 -- -- 88
2021-01-12 09:00:00 -1.1 0 Calma 6 Oeste 0 -- -- 91
2021-01-12 08:00:00 -1 3 Oeste 6 Sudoeste 0 -- -- 91
2021-01-12 07:00:00 -1 2 Oeste 6 Sudoeste 0 -- -- 92
2021-01-12 06:00:00 -0.9 0 Calma 6 Noroeste 0 -- -- 91
2021-01-12 05:00:00 -0.5 2 Oeste 7 Noroeste 0 -- -- 91
2021-01-12 04:00:00 -0.4 3 Oeste 6 Oeste 0 -- -- 92
2021-01-12 03:00:00 -0.2 0 Calma 5 Oeste 0 -- -- 91
2021-01-12 02:00:00 0 3 Oeste 5 Oeste 0 -- -- 92
2021-01-12 01:00:00 0.4 2 Oeste 5 Oeste 0 -- -- 91
2021-01-12 00:00:00 0.7 0 Calma 7 Sudoeste 0 -- -- 91
2021-01-11 23:00:00 0.9 4 Oeste 6 Oeste 0 -- -- 94
2021-01-11 22:00:00 1 0 Calma 4 Sudoeste 0 -- -- 93
2021-01-11 21:00:00 1.6 0 Calma 4 Nordeste 0 -- -- 92
2021-01-11 20:00:00 2.3 2 Nordeste 4 Nordeste 0 -- -- 87
2021-01-11 19:00:00 3.3 0 Calma 4 Norte 0 -- -- 84
2021-01-11 18:00:00 4.9 2 Noroeste 11 Nordeste 0 -- -- 77
2021-01-11 17:00:00 7.7 8 Nordeste 12 Nordeste 0 -- -- 71
2021-01-11 16:00:00 10 6 Sur 14 Sur 0 -- -- 60
2021-01-11 15:00:00 9.8 7 Sudeste 13 Sudeste 0 -- -- 64
2021-01-11 14:00:00 9.2 7 Sudeste 14 Sur 0 -- -- 69
2021-01-11 13:00:00 7.3 2 Sur 5 Sur 0 -- -- 79
2021-01-11 12:00:00 4.5 2 Sudeste 4 Nordeste 0 -- -- 91
2021-01-11 11:00:00 1.1 0 Calma 4 Norte 0 -- -- 99
2021-01-11 10:00:00 -0.1 0 Calma 3 Oeste 0 -- -- 99
2021-01-11 09:00:00 -0.1 0 Calma 4 Nordeste 0 -- -- 98
2021-01-11 08:00:00 0.2 0 Calma 4 Norte 0 -- -- 98
2021-01-11 07:00:00 0.2 2 Este 4 Sudeste 0 -- -- 97
2021-01-11 06:00:00 0.4 3 Nordeste 5 Nordeste 0 -- -- 98
2021-01-11 05:00:00 0.3 0 Calma 4 Oeste 0 -- -- 98
2021-01-11 04:00:00 0.3 2 Nordeste 5 Nordeste 0 -- -- 98
2021-01-11 03:00:00 0.4 0 Calma 4 Nordeste 0 -- -- 97
2021-01-11 02:00:00 0.6 3 Nordeste 6 Nordeste 0 -- -- 96
2021-01-11 01:00:00 1.2 2 Nordeste 4 Este 0 -- -- 95
2021-01-11 00:00:00 1.8 0 Calma 4 Este 0 -- -- 95
2021-01-10 23:00:00 2 0 Calma 6 Este 0 -- -- 91
2021-01-10 22:00:00 3.8 4 Noroeste 13 Norte 0 -- -- 81
2021-01-10 21:00:00 3.3 0 Calma 13 Nordeste 0 -- -- 87
2021-01-10 20:00:00 3.7 7 Norte 13 Norte 0 -- -- 86
2021-01-10 19:00:00 5 8 Nordeste 13 Nordeste 0 -- -- 83
2021-01-10 18:00:00 5.3 9 Nordeste 18 Norte 0 -- -- 78
2021-01-10 17:00:00 5.6 12 Nordeste 22 Nordeste 0 -- -- 78
2021-01-10 16:00:00 6.4 11 Nordeste 30 Nordeste 0 -- -- 74
2021-01-10 15:00:00 6.5 17 Nordeste 30 Nordeste 0 -- -- 73
2021-01-10 14:00:00 7.2 10 Este 31 Este 0 -- -- 72
2021-01-10 13:00:00 6.7 14 Nordeste 24 Nordeste 0 -- -- 73
2021-01-10 12:00:00 6.1 13 Nordeste 23 Nordeste 0 -- -- 79
2021-01-10 11:00:00 5 12 Nordeste 20 Norte 0 -- -- 84
2021-01-10 10:00:00 4.4 10 Norte 19 Norte 0 -- -- 88
2021-01-10 09:00:00 3.6 7 Noroeste 21 Nordeste 0.2 -- -- 93
2021-01-10 08:00:00 3.8 3 Este 31 Nordeste 0.2 -- -- 94
2021-01-10 07:00:00 3.8 10 Nordeste 17 Norte 0 -- -- 92
2021-01-10 06:00:00 3.1 6 Norte 24 Nordeste 0.2 -- -- 96
2021-01-10 05:00:00 3.5 12 Norte 26 Nordeste 0.2 -- -- 99
2021-01-10 04:00:00 2.3 2 Nordeste 5 Sudeste 0.6 -- -- 100
2021-01-10 03:00:00 2.7 2 Norte 9 Norte 1.2 -- -- 99
2021-01-10 02:00:00 2.2 3 Noroeste 6 Oeste 0.2 -- -- 99
2021-01-10 01:00:00 2.5 2 Este 17 Norte 0.6 -- -- 98
2021-01-10 00:00:00 2.7 8 Nordeste 19 Nordeste 1 -- -- 97
2021-01-09 23:00:00 2.7 7 Nordeste 21 Nordeste 1.4 -- -- 97
2021-01-09 22:00:00 3 10 Norte 22 Este 0.6 -- -- 96
2021-01-09 21:00:00 2.7 7 Este 17 Este 1 -- -- 96
2021-01-09 20:00:00 3.5 10 Nordeste 23 Este 0.4 -- -- 93
2021-01-09 19:00:00 3.3 13 Nordeste 30 Nordeste 0.2 -- -- 93
2021-01-09 18:00:00 3 18 Nordeste 38 Nordeste 1.2 -- -- 94
2021-01-09 17:00:00 3.4 11 Nordeste 31 Nordeste 0.4 -- -- 92
2021-01-09 16:00:00 3.2 16 Nordeste 31 Nordeste 0.2 -- -- 91
2021-01-09 15:00:00 2.3 4 Norte 19 Este 0.4 -- -- 97
2021-01-09 14:00:00 1.5 4 Norte 10 Norte 0 -- -- 100
2021-01-09 13:00:00 0.7 3 Sudoeste 14 Norte 2.2 -- -- 100
2021-01-09 12:00:00 -- 3 Este 6 Nordeste 1.4 -- -- --
2021-01-09 11:00:00 0.2 2 Oeste 4 Nordeste 0.4 -- -- 100
2021-01-09 10:00:00 -- 2 Noroeste 47 Sudoeste -- -- -- --
2021-01-09 09:00:00 -- 0 Calma 6 Sudoeste 1.4 -- -- --
2021-01-09 08:00:00 -1.3 2 Oeste 8 Sudoeste 0 -- -- 99
2021-01-09 07:00:00 -1.1 2 Oeste -- -- 0.2 -- -- 99
2021-01-09 06:00:00 -1.3 6 Nordeste 14 Nordeste 0 -- -- 99
2021-01-09 05:00:00 -1.6 2 Oeste 5 Sudoeste 0 -- -- 98
2021-01-09 04:00:00 -1.7 0 Calma 4 Oeste 0 -- -- 98
2021-01-09 03:00:00 -1.9 2 Nordeste 4 Nordeste 0 -- -- 98
2021-01-09 02:00:00 -1.6 0 Calma 3 Este 0 -- -- 97
2021-01-09 01:00:00 -1.1 0 Calma 3 Este 0 -- -- 94
2021-01-09 00:00:00 -0.2 0 Calma 4 Oeste 0 -- -- 95
2021-01-08 23:00:00 -0.5 2 Nordeste 4 Oeste 0 -- -- 96
2021-01-08 22:00:00 -0.3 3 Noroeste 6 Sudoeste 0 -- -- 92
2021-01-08 21:00:00 0.3 0 Calma 11 Nordeste 0 -- -- 90
2021-01-08 20:00:00 2 5 Nordeste 13 Nordeste 0 -- -- 84
2021-01-08 19:00:00 2.7 6 Norte 15 Norte 0 -- -- 83
2021-01-08 18:00:00 3.6 9 Norte 19 Norte 0 -- -- 79
2021-01-08 17:00:00 4.7 11 Nordeste 15 Nordeste 0 -- -- 72
2021-01-08 16:00:00 7.8 6 Sudeste 13 Sur 0 -- -- 58
2021-01-08 15:00:00 7.7 6 Sudeste 13 Sudeste 0 -- -- 59
2021-01-08 14:00:00 7.3 6 Sudeste 12 Sudeste 0 -- -- 59
2021-01-08 13:00:00 5.4 3 Sudoeste 6 Sur 0 -- -- 66
2021-01-08 12:00:00 2.8 4 Sur 6 Sudoeste 0 -- -- 84
2021-01-08 11:00:00 0 3 Sudoeste 7 Oeste 0 -- -- 87
2021-01-08 10:00:00 -2.1 5 Oeste 7 Oeste 0 -- -- 96
2021-01-08 09:00:00 -2.7 5 Oeste 10 Sudoeste 0 -- -- 96
2021-01-08 08:00:00 -3.1 3 Oeste 7 Oeste 0 -- -- 97
2021-01-08 07:00:00 -2.8 3 Oeste 9 Oeste 0 -- -- 97
2021-01-08 06:00:00 -2.6 3 Oeste 8 Oeste 0 -- -- 96
2021-01-08 05:00:00 -2.4 3 Sudoeste 7 Oeste 0 -- -- 96
2021-01-08 04:00:00 -1.8 2 Sudoeste 7 Sudoeste 0 -- -- 95
2021-01-08 03:00:00 -1.6 3 Oeste 9 Oeste 0 -- -- 97
2021-01-08 02:00:00 -1.3 4 Oeste 8 Oeste 0 -- -- 97
2021-01-08 01:00:00 -1 4 Oeste 8 Oeste 0 -- -- 98
2021-01-08 00:00:00 -0.6 5 Oeste 7 Oeste 0 -- -- 98
2021-01-07 23:00:00 -0.3 0 Calma 5 Oeste 0 -- -- 97
2021-01-07 22:00:00 0 2 Sur 7 Oeste 0 -- -- 96
2021-01-07 21:00:00 0.4 0 Calma 9 Oeste 0 -- -- 95
2021-01-07 20:00:00 1.1 2 Este 4 Norte 0 -- -- 93
2021-01-07 19:00:00 2.2 2 Oeste 6 Norte 0 -- -- 88
2021-01-07 18:00:00 4.1 2 Norte 8 Norte 0 -- -- 81
2021-01-07 17:00:00 8 3 Sudoeste 8 Sudeste 0 -- -- 62
2021-01-07 16:00:00 8.4 5 Sur 11 Sudeste 0 -- -- 58
2021-01-07 15:00:00 8.2 7 Sur 10 Sudeste 0 -- -- 61
2021-01-07 14:00:00 7.2 4 Sur 6 Sur 0 -- -- 63
2021-01-07 13:00:00 5.5 3 Sur 8 Sur 0 -- -- 71
2021-01-07 12:00:00 3.3 4 Sudoeste 8 Sudoeste 0 -- -- 76
2021-01-07 11:00:00 1.4 4 Sudoeste 8 Sur 0 -- -- 82
2021-01-07 10:00:00 -0.5 0 Calma 6 Oeste 0 -- -- 93
2021-01-07 09:00:00 -1.9 2 Noroeste 6 Sudoeste 0 -- -- 93
2021-01-07 08:00:00 -1.5 3 Oeste 6 Oeste 0 -- -- 93
2021-01-07 07:00:00 -1.4 3 Noroeste 6 Oeste 0 -- -- 94
2021-01-07 06:00:00 -1.1 3 Oeste 6 Noroeste 0 -- -- 94
2021-01-07 05:00:00 -1 2 Sudoeste 9 Oeste 0 -- -- 95
2021-01-07 04:00:00 -0.9 0 Calma 5 Oeste 0 -- -- 97
2021-01-07 03:00:00 -0.7 0 Calma 6 Oeste 0 -- -- 98
2021-01-07 02:00:00 -0.9 0 Calma 5 Nordeste 0 -- -- 98
2021-01-07 01:00:00 -0.7 3 Sudoeste 6 Oeste 0 -- -- 97
2021-01-07 00:00:00 -0.1 2 Nordeste 4 Oeste 0 -- -- 98
2021-01-06 23:00:00 0.5 0 Calma 6 Oeste 0 -- -- 98
2021-01-06 22:00:00 0.8 2 Oeste 4 Noroeste 0 -- -- 99
2021-01-06 21:00:00 1.2 3 Nordeste 9 Oeste 0 -- -- 97
2021-01-06 20:00:00 2 0 Calma 4 Norte 0 -- -- 95
2021-01-06 19:00:00 3.6 0 Calma 8 Norte 0 -- -- 92
2021-01-06 18:00:00 4.8 6 Noroeste 12 Oeste 0 -- -- 85
2021-01-06 17:00:00 5.5 8 Nordeste 16 Nordeste 0 -- -- 88
2021-01-06 16:00:00 6.9 12 Nordeste 18 Nordeste 0 -- -- 80
2021-01-06 15:00:00 8.2 9 Nordeste 13 Nordeste 0 -- -- 75
2021-01-06 14:00:00 8.2 6 Sudoeste 12 Sur 0 -- -- 73
2021-01-06 13:00:00 6.9 8 Sur 13 Sur 0 -- -- 80
2021-01-06 12:00:00 5.9 8 Sur 12 Sur 0 -- -- 82
2021-01-06 11:00:00 4.5 6 Sur 9 Sur 0 -- -- 90
2021-01-06 10:00:00 1.7 0 Calma 3 Norte 0 -- -- 100
2021-01-06 09:00:00 1.5 0 Calma 8 Noroeste 0 -- -- 100
2021-01-06 08:00:00 1.4 4 Noroeste 10 Noroeste 0 -- -- 100
2021-01-06 07:00:00 1.7 2 Oeste 5 Oeste 0 -- -- 100
2021-01-06 06:00:00 1.8 2 Oeste 5 Nordeste 0.2 -- -- 100
2021-01-06 05:00:00 1.8 3 Nordeste 7 Oeste 0 -- -- 100
2021-01-06 04:00:00 1.7 2 Sudoeste 5 Oeste 0 -- -- 100
2021-01-06 03:00:00 1.4 4 Oeste 8 Oeste 0 -- -- 100
2021-01-06 02:00:00 1.4 4 Oeste 6 Oeste 0.2 -- -- 100
2021-01-06 01:00:00 1.5 6 Sudoeste 9 Sur 0.2 -- -- 100
2021-01-06 00:00:00 1.1 2 Nordeste 5 Nordeste 0 -- -- 100
2021-01-05 23:00:00 1.1 2 Nordeste 3 Norte 0 -- -- 100
2021-01-05 22:00:00 1.8 3 Sudeste 6 Sudoeste 0 -- -- 99
2021-01-05 21:00:00 2.7 0 Calma 6 Sudoeste 0 -- -- 99
2021-01-05 20:00:00 3 2 Nordeste 4 Nordeste 0 -- -- 98
2021-01-05 19:00:00 3.7 0 Calma 9 Noroeste 0 -- -- 98
2021-01-05 18:00:00 4 5 Noroeste 10 Noroeste 0.2 -- -- 94
2021-01-05 17:00:00 4.7 3 Noroeste 9 Oeste 0.6 -- -- 93
2021-01-05 16:00:00 4.8 4 Sudoeste 12 Sur 0.6 -- -- 93
2021-01-05 15:00:00 4.4 7 Sur 13 Sudoeste 0 -- -- 95
2021-01-05 14:00:00 3.7 0 Calma 4 Oeste 0.8 -- -- 98
2021-01-05 13:00:00 3.2 3 Nordeste 15 Sur 0.6 -- -- 96
2021-01-05 12:00:00 3.1 3 Sudoeste 28 Sudoeste 2.4 -- -- 95
2021-01-05 11:00:00 3.5 10 Sudoeste 21 Sudoeste 0 -- -- 91
2021-01-05 10:00:00 2.8 6 Sudoeste 14 Sur 0 -- -- 92
2021-01-05 09:00:00 2.2 6 Sudoeste 12 Sudoeste 0 -- -- 94
2021-01-05 08:00:00 1.9 2 Sur 18 Sudoeste 0.2 -- -- 95
2021-01-05 07:00:00 1.6 8 Sudoeste 12 Sudoeste 0 -- -- 94
2021-01-05 06:00:00 1 4 Sudeste 9 Nordeste 0 -- -- 94
2021-01-05 05:00:00 1.3 3 Sudeste 8 Este 0 -- -- 96
2021-01-05 04:00:00 1.8 3 Nordeste 7 Este 0 -- -- 95
2021-01-05 03:00:00 1.9 3 Sur 10 Oeste 0 -- -- 95
2021-01-05 02:00:00 1.8 0 Calma 10 Sur 0 -- -- 97
2021-01-05 01:00:00 1.7 0 Calma 11 Sudoeste 0.2 -- -- 98
2021-01-05 00:00:00 1.5 5 Sudoeste 10 Oeste 0 -- -- 97
2021-01-04 23:00:00 1.2 3 Sudoeste 10 Sudoeste 0 -- -- 98
2021-01-04 22:00:00 1.2 3 Este 8 Sudoeste 0 -- -- 97
2021-01-04 21:00:00 1.4 4 Sudoeste 9 Sur 0 -- -- 98
2021-01-04 20:00:00 1.4 4 Sudoeste 10 Sudoeste 0 -- -- 98
2021-01-04 19:00:00 2 3 Norte 9 Sudoeste 0.6 -- -- 98
2021-01-04 18:00:00 2.3 5 Sudoeste -- -- -- -- -- 97
2021-01-04 17:00:00 3.4 8 Noroeste 16 Sudoeste 0.8 -- -- 93
2021-01-04 16:00:00 4.2 7 Oeste 14 Oeste 0.4 -- -- 92
2021-01-04 15:00:00 4.4 4 Sudeste 11 Sur 0.2 -- -- 93
2021-01-04 14:00:00 4.7 8 Sur 24 Sur 0 -- -- 90
2021-01-04 13:00:00 4 9 Sudoeste -- -- -- -- -- 95
2021-01-04 12:00:00 -- -- -- -- -- -- -- -- --
2021-01-04 11:00:00 1.9 9 Sur -- -- 1.2 -- -- 100
2021-01-04 10:00:00 1.6 3 Sudoeste 14 Sudoeste 2 -- -- 99
2021-01-04 09:00:00 1.8 3 Sudoeste -- -- -- -- -- 99
2021-01-04 08:00:00 1.7 5 Sudoeste 9 Sudoeste 0.2 -- -- 99
2021-01-04 07:00:00 1.8 4 Oeste 10 Sudoeste 1.4 -- -- 99
2021-01-04 06:00:00 1.9 3 Oeste 24 Sudoeste 1.4 -- -- 99
2021-01-04 05:00:00 2.4 10 Oeste -- -- -- -- -- 97
2021-01-04 04:00:00 2 5 Sudoeste -- -- 2.2 -- -- 98
2021-01-04 03:00:00 2.3 10 Sudoeste -- -- -- -- -- 96
2021-01-04 02:00:00 2.5 10 Sudoeste 16 Sudoeste 0.2 -- -- 97
2021-01-04 01:00:00 2.4 6 Sudoeste 22 Sudoeste 0.2 -- -- 96
2021-01-04 00:00:00 2.1 5 Oeste 18 Sudoeste 0 -- -- 96
2021-01-03 23:00:00 2.5 7 Sudoeste 18 Sudoeste 1 -- -- 97
2021-01-03 22:00:00 2.7 6 Sur 13 Oeste 0.2 -- -- 95
2021-01-03 21:00:00 2.8 4 Oeste 12 Sudoeste 0.2 -- -- 97
2021-01-03 20:00:00 2.8 6 Sudoeste 13 Sudoeste 0.4 -- -- 97
2021-01-03 19:00:00 2.9 7 Sudoeste 24 Sudoeste 0 -- -- 95
2021-01-03 18:00:00 3.7 3 Sudoeste 23 Oeste 1.4 -- -- 94
2021-01-03 17:00:00 4.5 5 Sudoeste 20 Sur 0.2 -- -- 92
2021-01-03 16:00:00 4.1 7 Sudoeste -- -- 0.4 -- -- 95
2021-01-03 15:00:00 4.7 7 Oeste 26 Sudoeste 1.8 -- -- 90
2021-01-03 14:00:00 4.4 13 Oeste 20 Oeste 2 -- -- 95
2021-01-03 13:00:00 4.6 10 Sudoeste 36 Oeste 2.6 -- -- 93
2021-01-03 12:00:00 4.8 11 Sudoeste 19 Sur 1 -- -- 93
2021-01-03 11:00:00 3.8 10 Sudoeste 19 Sudoeste 0.6 -- -- 95
2021-01-03 10:00:00 3.7 8 Sudoeste 14 Sudoeste 0.2 -- -- 97
2021-01-03 09:00:00 3.5 6 Sudoeste 17 Sudoeste 0.6 -- -- 97
2021-01-03 08:00:00 3.1 6 Sudoeste 11 Sudoeste 0.4 -- -- 98
2021-01-03 07:00:00 3.2 8 Sur 18 Sudoeste 0 -- -- 96
2021-01-03 06:00:00 3.5 6 Sudoeste 17 Sur 1 -- -- 99
2021-01-03 05:00:00 3.1 4 Sudoeste 10 Sudoeste 0 -- -- 97
2021-01-03 04:00:00 2.8 3 Noroeste 8 Sudeste 0 -- -- 98
2021-01-03 03:00:00 2.8 3 Norte 7 Sudeste 0 -- -- 98
2021-01-03 02:00:00 3.1 3 Noroeste 17 Sudoeste 0.8 -- -- 97
2021-01-03 01:00:00 2.6 5 Sur 12 Sur 0.2 -- -- 98
2021-01-03 00:00:00 2.8 3 Sudoeste 6 Noroeste 0 -- -- 98
2021-01-02 23:00:00 3.2 2 Oeste 10 Sur 0 -- -- 96
2021-01-02 22:00:00 3.4 4 Sur 9 Sudoeste 0.8 -- -- 96
2021-01-02 21:00:00 2.9 3 Nordeste 9 Noroeste 0 -- -- 98
2021-01-02 20:00:00 3.3 3 Este 8 Sudoeste 0.6 -- -- 96
2021-01-02 19:00:00 3.5 5 Sudoeste 10 Sur 0 -- -- 92
2021-01-02 18:00:00 3.5 4 Sur 11 Sur 0 -- -- 93
2021-01-02 17:00:00 3.8 6 Sudoeste 17 Sur 0 -- -- 93
2021-01-02 16:00:00 4.6 7 Sudoeste 15 Sur 0 -- -- 92
2021-01-02 15:00:00 4.4 7 Sudoeste 14 Sudoeste 0.2 -- -- 93
2021-01-02 14:00:00 4 3 Sudoeste 16 Sudoeste 0.8 -- -- 95